createdAt,value
2018-12-01T00:01:58.330Z,6.03
2018-12-01T00:04:32.890Z,5.83
2018-12-01T00:07:15.824Z,6.17
2018-12-01T00:09:49.562Z,5.47
2018-12-01T00:12:23.365Z,5.57
2018-12-01T00:17:39.509Z,5.77
2018-12-01T00:20:15.957Z,5.40
2018-12-01T00:22:49.811Z,5.03
2018-12-01T00:25:23.910Z,5.17
2018-12-01T00:27:58.437Z,6.27
2018-12-01T00:30:32.205Z,6.05
2018-12-01T00:33:06.290Z,6.00
2018-12-01T00:35:40.092Z,6.10
2018-12-01T00:38:13.892Z,5.77
2018-12-01T00:40:47.973Z,5.97
2018-12-01T00:43:21.801Z,5.70
2018-12-01T00:45:55.886Z,6.83
2018-12-01T00:48:30.429Z,6.13
2018-12-01T00:51:04.323Z,5.77
2018-12-01T00:53:38.121Z,6.23
2018-12-01T00:56:12.647Z,5.93
2018-12-01T00:58:47.279Z,5.23
2018-12-01T01:01:21.593Z,6.60
2018-12-01T01:03:56.414Z,5.17
2018-12-01T01:06:30.992Z,4.53
2018-12-01T01:09:05.195Z,4.80
2018-12-01T01:14:18.519Z,4.80
2018-12-01T01:16:52.341Z,4.53
2018-12-01T01:19:26.106Z,4.57
2018-12-01T01:22:00.794Z,4.33
2018-12-01T01:24:34.816Z,4.20
2018-12-01T01:27:09.082Z,4.53
2018-12-01T01:29:43.617Z,4.20
2018-12-01T01:32:17.432Z,4.23
2018-12-01T01:34:51.209Z,4.60
2018-12-01T01:37:25.763Z,4.13
2018-12-01T01:39:59.573Z,4.37
2018-12-01T01:42:33.381Z,3.90
2018-12-01T01:45:11.500Z,4.13
2018-12-01T01:47:45.319Z,4.80
2018-12-01T01:50:21.274Z,4.10
2018-12-01T01:52:55.104Z,4.77
2018-12-01T01:55:28.921Z,5.00
2018-12-01T01:58:03.489Z,4.60
2018-12-01T02:00:37.280Z,4.00
2018-12-01T02:03:11.129Z,5.20
2018-12-01T02:05:44.950Z,4.80
2018-12-01T02:08:18.754Z,4.87
2018-12-01T02:10:52.622Z,5.27
2018-12-01T02:13:26.472Z,4.30
2018-12-01T02:16:00.299Z,4.20
2018-12-01T02:18:35.196Z,4.17
2018-12-01T02:21:09.598Z,4.87
2018-12-01T02:23:43.708Z,3.87
2018-12-01T02:26:17.493Z,4.37
2018-12-01T02:28:51.337Z,3.80
2018-12-01T02:31:25.154Z,3.83
2018-12-01T02:33:59.025Z,4.20
2018-12-01T02:36:32.800Z,4.27
2018-12-01T02:39:11.247Z,4.43
2018-12-01T02:41:45.089Z,3.87
2018-12-01T02:45:24.901Z,3.80
2018-12-01T02:50:40.127Z,4.50
2018-12-01T02:55:59.822Z,4.47
2018-12-01T02:58:33.628Z,4.23
2018-12-01T03:01:07.590Z,4.37
2018-12-01T03:03:41.356Z,4.00
2018-12-01T03:06:15.211Z,4.03
2018-12-01T03:08:49.646Z,4.37
2018-12-01T03:11:23.453Z,3.87
2018-12-01T03:13:57.539Z,4.27
2018-12-01T03:16:32.384Z,4.23
2018-12-01T03:21:52.094Z,4.43
2018-12-01T03:27:11.770Z,4.60
2018-12-01T03:29:46.131Z,4.23
2018-12-01T03:32:19.914Z,4.50
2018-12-01T03:37:35.149Z,4.57
2018-12-01T03:40:09.192Z,3.83
2018-12-01T03:42:43.761Z,5.10
2018-12-01T03:45:24.328Z,4.20
2018-12-01T03:47:58.135Z,3.87
2018-12-01T03:50:32.226Z,4.17
2018-12-01T03:53:06.010Z,3.97
2018-12-01T03:55:39.798Z,4.20
2018-12-01T03:58:14.472Z,5.27
2018-12-01T04:00:48.314Z,5.00
2018-12-01T04:06:03.621Z,4.60
2018-12-01T04:08:38.132Z,3.83
2018-12-01T04:14:07.342Z,3.90
2018-12-01T04:16:41.217Z,4.60
2018-12-01T04:19:15.045Z,4.03
2018-12-01T04:21:48.786Z,3.77
2018-12-01T04:24:22.588Z,4.33
2018-12-01T04:26:56.732Z,3.90
2018-12-01T04:29:30.537Z,4.13
2018-12-01T04:32:04.438Z,4.30
2018-12-01T04:37:21.330Z,5.77
2018-12-01T04:39:55.145Z,4.13
2018-12-01T04:42:28.928Z,3.90
2018-12-01T04:45:02.673Z,4.17
2018-12-01T04:47:37.184Z,4.40
2018-12-01T04:50:18.855Z,4.60
2018-12-01T04:52:52.829Z,4.67
2018-12-01T04:55:26.682Z,4.67
2018-12-01T04:58:00.519Z,3.90
2018-12-01T05:00:34.342Z,4.37
2018-12-01T05:03:08.106Z,4.40
2018-12-01T05:05:41.899Z,4.53
2018-12-01T05:08:15.671Z,4.33
2018-12-01T05:10:49.650Z,4.27
2018-12-01T05:13:24.176Z,4.20
2018-12-01T05:15:58.770Z,4.90
2018-12-01T05:18:32.550Z,4.63
2018-12-01T05:21:06.440Z,5.93
2018-12-01T05:26:25.061Z,4.40
2018-12-01T05:28:58.872Z,4.33
2018-12-01T05:31:33.028Z,4.83
2018-12-01T05:34:07.006Z,4.00
2018-12-01T05:36:40.799Z,4.47
2018-12-01T05:39:14.603Z,4.50
2018-12-01T05:41:48.677Z,3.90
2018-12-01T05:44:22.518Z,4.55
2018-12-01T05:46:56.713Z,4.83
2018-12-01T05:49:30.540Z,4.70
2018-12-01T05:52:05.494Z,4.60
2018-12-01T05:54:38.933Z,4.20
2018-12-01T05:57:12.747Z,4.30
2018-12-01T05:59:46.509Z,4.77
2018-12-01T06:02:20.681Z,4.80
2018-12-01T06:04:54.499Z,4.67
2018-12-01T06:07:28.266Z,4.20
2018-12-01T06:10:02.084Z,4.27
2018-12-01T06:12:35.877Z,4.23
2018-12-01T06:15:14.728Z,4.50
2018-12-01T06:17:48.549Z,4.57
2018-12-01T06:20:24.223Z,4.63
2018-12-01T06:22:58.013Z,4.40
2018-12-01T06:25:32.081Z,4.77
2018-12-01T06:28:05.845Z,4.50
2018-12-01T06:30:39.981Z,4.57
2018-12-01T06:33:13.785Z,4.73
2018-12-01T06:35:47.620Z,4.17
2018-12-01T06:38:21.432Z,4.37
2018-12-01T06:40:55.243Z,5.03
2018-12-01T06:43:29.040Z,5.80
2018-12-01T06:46:02.846Z,5.50
2018-12-01T06:48:36.676Z,4.73
2018-12-01T06:51:10.483Z,4.23
2018-12-01T06:53:44.523Z,4.20
2018-12-01T06:56:18.291Z,5.87
2018-12-01T06:58:52.077Z,5.30
2018-12-01T07:01:25.873Z,4.60
2018-12-01T07:03:59.704Z,4.27
2018-12-01T07:06:33.817Z,4.50
2018-12-01T07:09:11.537Z,4.50
2018-12-01T07:11:45.418Z,4.50
2018-12-01T07:14:19.185Z,4.13
2018-12-01T07:16:53.009Z,4.23
2018-12-01T07:19:26.800Z,4.27
2018-12-01T07:22:01.326Z,4.50
2018-12-01T07:24:35.988Z,4.47
2018-12-01T07:27:10.073Z,4.87
2018-12-01T07:29:43.890Z,4.57
2018-12-01T07:37:36.822Z,4.87
2018-12-01T07:40:16.936Z,4.87
2018-12-01T07:45:30.951Z,5.27
2018-12-01T07:48:04.756Z,4.30
2018-12-01T07:50:38.549Z,4.87
2018-12-01T07:55:54.397Z,5.27
2018-12-01T07:58:28.209Z,5.30
2018-12-01T08:01:01.984Z,4.90
2018-12-01T08:03:35.790Z,4.50
2018-12-01T08:06:10.435Z,4.57
2018-12-01T08:08:45.121Z,4.97
2018-12-01T08:11:18.937Z,4.90
2018-12-01T08:13:52.994Z,5.07
2018-12-01T08:16:26.744Z,4.53
2018-12-01T08:19:00.569Z,4.53
2018-12-01T08:21:34.401Z,4.80
2018-12-01T08:24:08.930Z,4.20
2018-12-01T08:29:24.915Z,6.00
2018-12-01T08:31:58.677Z,5.20
2018-12-01T08:34:32.458Z,5.20
2018-12-01T08:37:08.390Z,5.70
2018-12-01T08:39:43.312Z,5.27
2018-12-01T08:42:18.658Z,5.47
2018-12-01T08:44:52.475Z,5.73
2018-12-01T08:47:27.035Z,4.93
2018-12-01T08:50:00.914Z,4.87
2018-12-01T08:52:35.451Z,5.33
2018-12-01T08:55:17.604Z,5.10
2018-12-01T08:57:51.998Z,5.17
2018-12-01T09:00:39.808Z,5.00
2018-12-01T09:03:24.666Z,5.23
2018-12-01T09:05:59.190Z,4.83
2018-12-01T09:08:33.083Z,5.43
2018-12-01T09:11:07.774Z,5.50
2018-12-01T09:13:41.590Z,5.33
2018-12-01T09:16:15.391Z,4.67
2018-12-01T09:18:49.233Z,5.07
2018-12-01T09:21:23.809Z,6.07
2018-12-01T09:23:57.888Z,5.40
2018-12-01T09:26:31.716Z,4.87
2018-12-01T09:31:46.986Z,5.20
2018-12-01T09:34:21.576Z,4.83
2018-12-01T09:36:55.393Z,4.70
2018-12-01T09:39:29.977Z,5.27
2018-12-01T09:42:03.772Z,5.47
2018-12-01T09:44:37.580Z,5.87
2018-12-01T09:47:11.405Z,6.53
2018-12-01T09:49:45.235Z,6.33
2018-12-01T09:52:19.096Z,6.10
2018-12-01T09:54:53.493Z,6.50
2018-12-01T09:57:27.006Z,6.33
2018-12-01T10:00:00.813Z,6.23
2018-12-01T10:02:34.626Z,6.90
2018-12-01T10:05:11.058Z,5.83
2018-12-01T10:07:45.735Z,5.30
2018-12-01T10:10:24.857Z,5.77
2018-12-01T10:12:59.720Z,5.73
2018-12-01T10:15:36.213Z,5.90
2018-12-01T10:18:11.529Z,6.07
2018-12-01T10:20:45.422Z,5.70
2018-12-01T10:23:19.541Z,5.80
2018-12-01T10:25:53.838Z,4.93
2018-12-01T10:31:09.804Z,5.43
2018-12-01T10:33:44.633Z,5.87
2018-12-01T10:36:20.285Z,5.87
2018-12-01T10:38:54.842Z,5.22
2018-12-01T10:41:28.669Z,4.80
2018-12-01T10:44:02.481Z,5.40
2018-12-01T10:46:36.578Z,4.43
2018-12-01T10:49:10.390Z,5.33
2018-12-01T10:51:44.450Z,5.23
2018-12-01T10:54:18.503Z,3.98
2018-12-01T10:56:52.346Z,4.45
2018-12-01T10:59:26.133Z,4.30
2018-12-01T11:02:18.543Z,4.60
2018-12-01T11:07:33.752Z,4.53
2018-12-01T11:10:09.889Z,5.37
2018-12-01T11:12:43.753Z,5.40
2018-12-01T11:15:17.789Z,4.58
2018-12-01T11:17:53.164Z,4.13
2018-12-01T11:20:26.986Z,5.15
2018-12-01T11:23:01.591Z,4.15
2018-12-01T11:25:35.887Z,3.90
2018-12-01T11:30:53.853Z,4.80
2018-12-01T11:33:27.688Z,4.87
2018-12-01T11:36:01.796Z,5.57
2018-12-01T11:38:35.580Z,4.87
2018-12-01T11:41:09.423Z,4.55
2018-12-01T11:43:43.305Z,4.27
2018-12-01T11:46:17.424Z,4.70
2018-12-01T11:48:51.650Z,5.00
2018-12-01T11:51:27.621Z,4.27
2018-12-01T11:54:01.430Z,4.97
2018-12-01T11:56:35.198Z,4.90
2018-12-01T11:59:09.025Z,4.47
2018-12-01T12:01:43.127Z,5.27
2018-12-01T12:04:17.223Z,4.53
2018-12-01T12:06:51.803Z,3.58
2018-12-01T12:09:25.680Z,3.70
2018-12-01T12:11:59.451Z,3.50
2018-12-01T12:14:33.281Z,3.27
2018-12-01T12:17:07.549Z,3.37
2018-12-01T12:19:41.450Z,3.55
2018-12-01T12:22:15.280Z,3.37
2018-12-01T12:24:49.444Z,3.08
2018-12-01T12:30:04.879Z,3.00
2018-12-01T12:32:39.013Z,2.70
2018-12-01T12:37:56.692Z,2.75
2018-12-01T12:40:30.446Z,2.17
2018-12-01T12:43:04.297Z,2.33
2018-12-01T12:45:38.281Z,2.22
2018-12-01T12:48:12.215Z,2.87
2018-12-01T12:50:46.045Z,2.40
2018-12-01T12:53:19.852Z,2.40
2018-12-01T12:55:53.802Z,2.15
2018-12-01T12:58:27.577Z,1.90
2018-12-01T13:01:01.337Z,2.12
2018-12-01T13:03:35.161Z,1.85
2018-12-01T13:06:09.121Z,2.37
2018-12-01T13:08:42.968Z,2.17
2018-12-01T13:11:16.736Z,2.33
2018-12-01T13:13:50.565Z,2.10
2018-12-01T13:16:24.412Z,2.22
2018-12-01T13:21:39.676Z,2.17
2018-12-01T13:24:14.190Z,2.50
2018-12-01T13:29:28.962Z,2.55
2018-12-01T13:32:02.741Z,2.70
2018-12-01T13:34:36.544Z,2.25
2018-12-01T13:37:10.361Z,2.23
2018-12-01T13:39:44.156Z,2.60
2018-12-01T13:42:17.987Z,2.58
2018-12-01T13:44:51.781Z,2.70
2018-12-01T13:47:26.386Z,2.80
2018-12-01T13:50:00.276Z,2.40
2018-12-01T13:52:34.366Z,3.27
2018-12-01T13:55:10.577Z,3.20
2018-12-01T13:57:44.572Z,2.47
2018-12-01T14:00:22.912Z,3.27
2018-12-01T14:02:56.653Z,2.90
2018-12-01T14:05:30.865Z,2.77
2018-12-01T14:08:05.458Z,2.83
2018-12-01T14:10:51.056Z,3.15
2018-12-01T14:13:24.912Z,2.67
2018-12-01T14:15:58.871Z,3.27
2018-12-01T14:18:33.468Z,3.00
2018-12-01T14:21:07.462Z,2.58
2018-12-01T14:23:41.565Z,2.50
2018-12-01T14:26:15.380Z,2.40
2018-12-01T14:28:49.518Z,3.02
2018-12-01T14:31:23.313Z,2.33
2018-12-01T14:33:57.108Z,2.50
2018-12-01T14:36:30.891Z,2.80
2018-12-01T14:39:04.836Z,2.17
2018-12-01T14:41:38.681Z,2.55
2018-12-01T14:44:12.483Z,2.63
2018-12-01T14:46:46.303Z,2.70
2018-12-01T14:49:20.862Z,2.85
2018-12-01T14:51:54.728Z,2.70
2018-12-01T14:54:28.554Z,3.22
2018-12-01T14:57:03.093Z,3.00
2018-12-01T14:59:36.830Z,2.60
2018-12-01T15:02:10.621Z,2.80
2018-12-01T15:04:44.409Z,2.40
2018-12-01T15:07:18.493Z,2.37
2018-12-01T15:09:53.050Z,2.30
2018-12-01T15:12:26.859Z,2.73
2018-12-01T15:15:01.001Z,2.60
2018-12-01T15:17:35.054Z,2.43
2018-12-01T15:20:19.206Z,2.60
2018-12-01T15:23:00.578Z,2.30
2018-12-01T15:25:34.357Z,2.20
2018-12-01T15:28:08.532Z,2.67
2018-12-01T15:30:42.340Z,2.67
2018-12-01T15:33:17.845Z,2.37
2018-12-01T15:35:52.012Z,2.90
2018-12-01T15:38:25.893Z,3.20
2018-12-01T15:41:00.422Z,2.90
2018-12-01T15:43:34.235Z,2.57
2018-12-01T15:46:08.171Z,2.87
2018-12-01T15:48:42.734Z,2.90
2018-12-01T15:51:17.330Z,2.58
2018-12-01T15:53:51.906Z,3.20
2018-12-01T15:56:26.449Z,2.87
2018-12-01T15:59:00.505Z,2.90
2018-12-01T16:01:35.049Z,3.20
2018-12-01T16:04:09.558Z,2.93
2018-12-01T16:06:43.357Z,2.90
2018-12-01T16:09:17.188Z,3.10
2018-12-01T16:11:51.798Z,2.85
2018-12-01T16:14:26.494Z,3.07
2018-12-01T16:17:00.257Z,3.47
2018-12-01T16:19:34.783Z,2.87
2018-12-01T16:22:08.594Z,2.83
2018-12-01T16:24:42.521Z,3.20
2018-12-01T16:27:16.346Z,2.67
2018-12-01T16:29:50.122Z,2.60
2018-12-01T16:32:23.940Z,2.70
2018-12-01T16:34:57.810Z,2.92
2018-12-01T16:37:32.327Z,2.50
2018-12-01T16:40:08.940Z,3.03
2018-12-01T16:42:42.776Z,2.58
2018-12-01T16:45:17.766Z,2.77
2018-12-01T16:47:51.588Z,3.57
2018-12-01T16:50:25.677Z,3.33
2018-12-01T16:53:00.506Z,2.33
2018-12-01T16:55:34.641Z,2.60
2018-12-01T16:58:08.628Z,2.97
2018-12-01T17:00:44.004Z,3.15
2018-12-01T17:03:17.856Z,2.70
2018-12-01T17:05:57.636Z,2.77
2018-12-01T17:08:31.420Z,3.20
2018-12-01T17:11:05.230Z,3.83
2018-12-01T17:13:40.146Z,2.53
2018-12-01T17:16:15.449Z,3.20
2018-12-01T17:18:49.266Z,2.83
2018-12-01T17:21:23.073Z,3.00
2018-12-01T17:23:57.157Z,3.10
2018-12-01T17:26:30.981Z,3.20
2018-12-01T17:29:04.785Z,3.43
2018-12-01T17:31:38.673Z,3.83
2018-12-01T17:34:12.487Z,3.27
2018-12-01T17:36:46.472Z,3.27
2018-12-01T17:39:21.056Z,3.07
2018-12-01T17:41:55.124Z,3.20
2018-12-01T17:44:28.968Z,3.33
2018-12-01T17:47:02.794Z,3.13
2018-12-01T17:49:36.613Z,2.97
2018-12-01T17:52:10.421Z,2.80
2018-12-01T17:54:45.021Z,2.93
2018-12-01T17:57:19.538Z,3.00
2018-12-01T17:59:53.345Z,3.03
2018-12-01T18:02:27.408Z,3.50
2018-12-01T18:05:01.510Z,3.30
2018-12-01T18:07:36.375Z,3.70
2018-12-01T18:10:12.699Z,2.30
2018-12-01T18:12:46.927Z,3.07
2018-12-01T18:15:21.870Z,3.27
2018-12-01T18:17:56.714Z,3.10
2018-12-01T18:20:30.509Z,3.37
2018-12-01T18:23:05.344Z,2.57
2018-12-01T18:25:56.158Z,2.33
2018-12-01T18:28:50.918Z,2.80
2018-12-01T18:31:29.379Z,2.17
2018-12-01T18:34:10.154Z,2.57
2018-12-01T18:36:43.951Z,2.93
2018-12-01T18:39:21.510Z,2.80
2018-12-01T18:41:55.594Z,2.60
2018-12-01T18:44:29.396Z,3.00
2018-12-01T18:47:03.206Z,2.30
2018-12-01T18:49:37.389Z,2.03
2018-12-01T18:52:11.181Z,2.60
2018-12-01T18:54:44.989Z,2.93
2018-12-01T18:57:18.787Z,2.30
2018-12-01T18:59:52.857Z,2.40
2018-12-01T19:02:26.689Z,2.53
2018-12-01T19:05:00.505Z,2.93
2018-12-01T19:07:35.056Z,2.27
2018-12-01T19:10:19.167Z,2.20
2018-12-01T19:12:52.978Z,2.70
2018-12-01T19:15:27.557Z,2.63
2018-12-01T19:18:01.338Z,2.87
2018-12-01T19:20:35.131Z,2.67
2018-12-01T19:23:13.635Z,2.93
2018-12-01T19:25:50.151Z,3.17
2018-12-01T19:28:23.941Z,2.63
2018-12-01T19:30:57.717Z,3.03
2018-12-01T19:41:37.874Z,3.03
2018-12-01T19:46:53.109Z,3.27
2018-12-01T19:49:27.665Z,3.40
2018-12-01T19:52:01.450Z,3.27
2018-12-01T19:57:17.961Z,3.53
2018-12-01T19:59:52.506Z,3.30
2018-12-01T20:02:26.743Z,2.50
2018-12-01T20:07:41.937Z,4.07
2018-12-01T20:16:41.787Z,4.07
2018-12-01T20:19:15.610Z,4.70
2018-12-01T20:21:49.419Z,4.67
2018-12-01T20:27:03.426Z,4.87
2018-12-01T20:29:38.037Z,4.93
2018-12-01T20:32:11.820Z,4.43
2018-12-01T20:37:27.315Z,4.20
2018-12-01T20:40:01.146Z,5.03
2018-12-01T20:42:35.123Z,4.90
2018-12-01T20:45:12.153Z,4.97
2018-12-01T20:47:46.664Z,5.40
2018-12-01T20:53:03.442Z,4.43
2018-12-01T20:55:37.277Z,5.07
2018-12-01T20:58:11.089Z,4.53
2018-12-01T21:00:45.256Z,5.00
2018-12-01T21:03:19.058Z,4.57
2018-12-01T21:05:52.884Z,5.03
2018-12-01T21:08:28.008Z,4.03
2018-12-01T21:14:02.230Z,5.30
2018-12-01T21:16:36.774Z,4.97
2018-12-01T21:19:10.812Z,4.97
2018-12-01T21:24:26.367Z,4.83
2018-12-01T21:27:00.938Z,4.77
2018-12-01T21:32:16.636Z,5.40
2018-12-01T21:37:36.761Z,4.67
2018-12-01T21:40:19.199Z,4.73
2018-12-01T21:42:53.728Z,5.37
2018-12-01T21:45:28.230Z,4.73
2018-12-01T21:48:02.015Z,5.10
2018-12-01T21:50:36.186Z,4.77
2018-12-01T21:53:24.618Z,4.83
2018-12-01T21:55:59.202Z,4.43
2018-12-01T21:58:33.417Z,4.90
2018-12-01T22:01:08.256Z,5.57
2018-12-01T22:03:42.117Z,5.17
2018-12-01T22:06:15.934Z,5.47
2018-12-01T22:08:50.023Z,5.37
2018-12-01T22:11:24.177Z,4.63
2018-12-01T22:13:57.949Z,4.53
2018-12-01T22:16:31.865Z,4.70
2018-12-01T22:19:05.677Z,5.33
2018-12-01T22:21:39.568Z,4.95
2018-12-01T22:24:14.141Z,4.80
2018-12-01T22:26:47.999Z,4.90
2018-12-01T22:29:22.579Z,5.60
2018-12-01T22:34:37.825Z,5.53
2018-12-01T22:39:53.462Z,3.83
2018-12-01T22:42:28.122Z,4.73
2018-12-01T22:45:01.924Z,4.70
2018-12-01T22:50:27.218Z,5.37
2018-12-01T22:53:01.527Z,4.70
2018-12-01T22:55:35.920Z,4.90
2018-12-01T22:58:17.077Z,5.33
2018-12-01T23:01:04.213Z,4.70
2018-12-01T23:03:43.834Z,4.73
2018-12-01T23:06:17.618Z,4.90
2018-12-01T23:08:51.452Z,5.27
2018-12-01T23:11:26.041Z,4.25
2018-12-01T23:14:00.934Z,5.43
2018-12-01T23:16:35.002Z,5.07
2018-12-01T23:19:09.028Z,5.33
2018-12-01T23:21:42.822Z,5.90
2018-12-01T23:24:16.529Z,4.50
2018-12-01T23:26:52.117Z,4.87
2018-12-01T23:29:25.962Z,5.03
2018-12-01T23:34:45.630Z,5.30
2018-12-01T23:37:19.766Z,5.37
2018-12-01T23:39:53.567Z,5.40
2018-12-01T23:42:27.301Z,4.93
2018-12-01T23:45:01.822Z,5.23
2018-12-01T23:47:35.666Z,4.90
2018-12-01T23:50:14.677Z,5.37
2018-12-01T23:52:53.994Z,4.78
2018-12-01T23:55:27.860Z,5.20
2018-12-01T23:58:01.669Z,5.10
